Time;durP1;ratioP1;P1;durP2;ratioP2;P2;SDS_P1;SDS_P2;PMS_P1;PMS_P2;Temp;Humidity;BMP_temperature;BMP_pressure;BME280_temperature;BME280_humidity;BME280_pressure;Samples;Min_cycle;Max_cycle;Signal;HPM_P1;HPM_P2
2024/01/15 13:19:04;;;;;;;7.73;3.90;;;;;;;;;;5111229;27;20565;-34
2024/01/15 13:21:36;;;;;;;6.30;3.57;;;;;;;;;;5133551;27;20209;-33
2024/01/15 13:24:06;;;;;;;6.20;2.87;;;;;;;;;;5139568;27;20217;-36
2024/01/15 13:26:33;;;;;;;5.03;2.77;;;;;;;;;;5126568;27;20226;-33
2024/01/15 13:29:03;;;;;;;5.00;2.67;;;;;;;;;;5123403;27;20204;-33
2024/01/15 13:31:33;;;;;;;5.83;2.87;;;;;;;;;;5135938;27;20217;-35
2024/01/15 13:34:07;;;;;;;5.20;3.37;;;;;;;;;;5122075;27;20294;-33
2024/01/15 13:36:35;;;;;;;3.30;2.60;;;;;;;;;;5126067;27;20196;-35
2024/01/15 13:39:03;;;;;;;3.33;2.43;;;;;;;;;;5133874;27;20249;-33
2024/01/15 13:41:31;;;;;;;5.37;3.40;;;;;;;;;;5131447;27;20206;-37
2024/01/15 13:46:30;;;;;;;5.90;3.03;;;;;;;;;;5078807;28;20218;-31
2024/01/15 13:49:02;;;;;;;5.43;3.57;;;;;;;;;;5090260;28;20240;-35
2024/01/15 13:51:30;;;;;;;4.60;3.17;;;;;;;;;;5085379;28;20200;-36
2024/01/15 13:53:59;;;;;;;6.83;3.00;;;;;;;;;;5094526;28;20211;-32
2024/01/15 13:56:31;;;;;;;3.47;2.67;;;;;;;;;;5079331;28;20206;-36
2024/01/15 13:58:59;;;;;;;6.43;3.80;;;;;;;;;;5073672;28;20210;-32
2024/01/15 14:03:57;;;;;;;7.73;3.40;;;;;;;;;;5065765;28;20225;-32
2024/01/15 14:06:26;;;;;;;5.73;3.47;;;;;;;;;;5067557;28;20201;-35
2024/01/15 14:08:55;;;;;;;3.70;2.73;;;;;;;;;;5083771;28;20232;-33
2024/01/15 14:11:23;;;;;;;5.63;3.70;;;;;;;;;;5073163;28;20246;-33
2024/01/15 14:13:55;;;;;;;7.53;3.93;;;;;;;;;;5066900;28;20201;-35
2024/01/15 14:16:23;;;;;;;5.27;3.50;;;;;;;;;;5076120;28;20208;-34
2024/01/15 14:18:51;;;;;;;5.40;3.67;;;;;;;;;;5058048;28;21049;-35
2024/01/15 14:21:19;;;;;;;6.20;3.57;;;;;;;;;;5050454;28;20277;-36
2024/01/15 14:23:50;;;;;;;6.10;3.70;;;;;;;;;;5061261;28;20232;-33
2024/01/15 14:26:19;;;;;;;5.33;3.20;;;;;;;;;;5051797;28;20317;-33
2024/01/15 14:28:48;;;;;;;5.03;3.33;;;;;;;;;;5044671;28;20308;-32
2024/01/15 14:31:16;;;;;;;5.93;3.70;;;;;;;;;;5060484;28;20541;-36
2024/01/15 14:33:44;;;;;;;4.90;3.30;;;;;;;;;;5055072;28;20489;-32
2024/01/15 14:36:12;;;;;;;7.40;3.60;;;;;;;;;;5053307;28;20537;-31
2024/01/15 14:38:39;;;;;;;6.97;3.10;;;;;;;;;;5066081;28;20634;-34
2024/01/15 14:41:07;;;;;;;4.33;2.87;;;;;;;;;;5060105;28;20217;-34
2024/01/15 14:43:37;;;;;;;4.73;2.30;;;;;;;;;;5047556;28;20551;-35
2024/01/15 14:46:05;;;;;;;4.83;3.30;;;;;;;;;;5047147;28;20206;-33
2024/01/15 14:48:33;;;;;;;7.47;4.40;;;;;;;;;;5049248;28;20280;-32
2024/01/15 14:51:00;;;;;;;6.13;3.47;;;;;;;;;;5049891;28;20226;-32
2024/01/15 14:53:30;;;;;;;6.17;2.73;;;;;;;;;;5058536;28;20241;-32
2024/01/15 14:55:58;;;;;;;2.73;2.40;;;;;;;;;;5058956;28;20232;-34
2024/01/15 14:58:26;;;;;;;8.37;3.60;;;;;;;;;;5045098;28;20212;-31
2024/01/15 15:00:56;;;;;;;4.57;3.13;;;;;;;;;;5046992;28;20245;-32
2024/01/15 15:03:24;;;;;;;3.70;2.30;;;;;;;;;;5073650;28;20292;-30
2024/01/15 15:05:51;;;;;;;5.43;1.67;;;;;;;;;;5067287;28;20235;-31
2024/01/15 15:08:18;;;;;;;2.83;2.40;;;;;;;;;;5078728;28;20232;-33
2024/01/15 15:10:46;;;;;;;3.47;2.60;;;;;;;;;;5081568;28;20278;-33
2024/01/15 15:13:13;;;;;;;4.83;2.70;;;;;;;;;;5067205;28;20296;-33
2024/01/15 15:15:42;;;;;;;2.97;2.07;;;;;;;;;;5064072;28;20212;-34
2024/01/15 15:18:11;;;;;;;3.53;2.10;;;;;;;;;;5084474;28;20564;-35
2024/01/15 15:20:38;;;;;;;0.83;0.73;;;;;;;;;;5067280;28;20327;-37
2024/01/15 15:23:08;;;;;;;2.43;1.50;;;;;;;;;;5082718;28;20639;-34
2024/01/15 15:25:36;;;;;;;2.93;1.77;;;;;;;;;;5077419;28;20618;-32
2024/01/15 15:28:05;;;;;;;4.67;3.13;;;;;;;;;;5064565;28;20222;-36
2024/01/15 15:30:32;;;;;;;3.93;2.70;;;;;;;;;;5054301;28;20221;-36
2024/01/15 15:33:02;;;;;;;3.50;2.97;;;;;;;;;;5078897;28;20255;-33
2024/01/15 15:35:31;;;;;;;3.03;2.27;;;;;;;;;;5060127;28;20316;-30
2024/01/15 15:37:58;;;;;;;3.13;2.43;;;;;;;;;;5089395;28;20229;-35
2024/01/15 15:40:26;;;;;;;4.13;2.43;;;;;;;;;;5080274;28;20290;-33
2024/01/15 15:42:53;;;;;;;2.57;2.33;;;;;;;;;;5080623;28;20197;-33
2024/01/15 15:45:20;;;;;;;4.03;3.33;;;;;;;;;;5069765;28;20620;-35
2024/01/15 15:47:48;;;;;;;4.67;3.37;;;;;;;;;;5075663;28;20618;-31
2024/01/15 15:50:15;;;;;;;6.10;2.63;;;;;;;;;;5055469;28;20218;-34
2024/01/15 15:52:44;;;;;;;5.00;2.07;;;;;;;;;;5074461;28;20205;-32
2024/01/15 15:55:11;;;;;;;6.70;2.93;;;;;;;;;;5076536;28;20240;-31
2024/01/15 15:57:39;;;;;;;4.47;3.27;;;;;;;;;;5068452;28;20449;-34
2024/01/15 16:00:07;;;;;;;2.17;1.53;;;;;;;;;;5066224;28;20244;-35
2024/01/15 16:02:34;;;;;;;6.13;3.60;;;;;;;;;;5077029;28;20209;-30
2024/01/15 16:05:04;;;;;;;3.30;2.60;;;;;;;;;;5067822;28;20209;-36
2024/01/15 16:07:35;;;;;;;3.93;2.17;;;;;;;;;;5083186;28;20223;-33
2024/01/15 16:10:04;;;;;;;2.20;1.53;;;;;;;;;;5089485;28;20677;-35
2024/01/15 16:12:31;;;;;;;2.73;2.10;;;;;;;;;;5069717;28;20202;-31
2024/01/15 16:14:59;;;;;;;4.10;3.00;;;;;;;;;;5068233;28;20208;-36
2024/01/15 16:17:27;;;;;;;4.57;3.17;;;;;;;;;;5071347;28;20278;-36
2024/01/15 16:19:55;;;;;;;3.33;1.87;;;;;;;;;;5067298;28;20320;-37
2024/01/15 16:22:22;;;;;;;6.10;3.13;;;;;;;;;;5067743;28;20213;-35
2024/01/15 16:24:49;;;;;;;1.90;1.57;;;;;;;;;;5079578;28;20215;-35
2024/01/15 16:27:18;;;;;;;6.10;3.33;;;;;;;;;;5068849;28;20213;-32
2024/01/15 16:29:46;;;;;;;4.97;2.80;;;;;;;;;;5057838;28;20221;-34
2024/01/15 16:32:13;;;;;;;4.87;3.23;;;;;;;;;;5077717;28;20266;-30
2024/01/15 16:34:41;;;;;;;3.50;2.80;;;;;;;;;;5066073;28;20233;-31
2024/01/15 16:37:11;;;;;;;4.47;3.67;;;;;;;;;;5068719;28;20220;-37
2024/01/15 16:39:42;;;;;;;4.37;2.90;;;;;;;;;;5081905;28;20225;-30
2024/01/15 16:42:09;;;;;;;3.57;3.00;;;;;;;;;;5083295;28;20202;-29
2024/01/15 16:44:39;;;;;;;3.90;2.40;;;;;;;;;;5067649;28;20220;-38
2024/01/15 16:47:08;;;;;;;2.57;2.37;;;;;;;;;;5076759;28;20198;-36
2024/01/15 16:49:36;;;;;;;6.13;2.30;;;;;;;;;;5068988;28;20235;-35
2024/01/15 16:52:03;;;;;;;2.67;2.30;;;;;;;;;;5074579;28;20208;-36
2024/01/15 16:54:31;;;;;;;4.47;3.17;;;;;;;;;;5070438;28;20210;-33
2024/01/15 16:56:58;;;;;;;6.27;3.43;;;;;;;;;;5068493;28;20601;-32
2024/01/15 16:59:26;;;;;;;3.67;2.53;;;;;;;;;;5069784;28;20270;-35
2024/01/15 17:01:54;;;;;;;5.10;2.67;;;;;;;;;;5076594;28;20945;-37
2024/01/15 17:04:22;;;;;;;6.13;3.40;;;;;;;;;;5065308;28;20221;-35
2024/01/15 17:06:52;;;;;;;3.40;2.90;;;;;;;;;;5070161;28;20216;-34
2024/01/15 17:09:20;;;;;;;4.53;3.53;;;;;;;;;;5078444;28;20236;-34
2024/01/15 17:11:55;;;;;;;40.27;21.17;;;;;;;;;;5071290;28;20586;-37
2024/01/15 17:14:24;;;;;;;8.63;4.93;;;;;;;;;;5063182;28;20206;-34
2024/01/15 17:16:53;;;;;;;4.63;3.23;;;;;;;;;;5076722;28;20205;-31
2024/01/15 17:19:27;;;;;;;5.47;3.27;;;;;;;;;;5071629;28;20379;-34
2024/01/15 17:21:58;;;;;;;4.50;3.30;;;;;;;;;;5064988;28;20595;-30
2024/01/15 17:24:26;;;;;;;5.43;4.03;;;;;;;;;;5079310;28;20259;-32
2024/01/15 17:26:59;;;;;;;6.30;3.50;;;;;;;;;;5080229;28;20273;-33
2024/01/15 17:29:33;;;;;;;5.97;4.10;;;;;;;;;;5072194;28;20225;-33
2024/01/15 17:32:15;;;;;;;4.60;2.63;;;;;;;;;;5077727;28;20734;-34
2024/01/15 17:34:46;;;;;;;4.90;3.33;;;;;;;;;;5067495;28;20764;-35
2024/01/15 17:37:21;;;;;;;5.17;3.50;;;;;;;;;;5078772;28;20204;-30
2024/01/15 17:39:49;;;;;;;5.77;3.67;;;;;;;;;;5066650;28;20216;-35
2024/01/15 17:42:27;;;;;;;4.37;2.90;;;;;;;;;;5070366;28;20206;-32
2024/01/15 17:44:59;;;;;;;7.63;5.60;;;;;;;;;;5069268;28;20240;-34
2024/01/15 17:47:32;;;;;;;6.73;4.73;;;;;;;;;;5081650;28;20274;-33
2024/01/15 17:50:07;;;;;;;6.17;3.90;;;;;;;;;;5065507;28;20229;-33
2024/01/15 17:52:37;;;;;;;5.73;3.27;;;;;;;;;;5079713;28;20204;-34
2024/01/15 17:55:07;;;;;;;7.20;3.20;;;;;;;;;;5085515;28;20224;-34
2024/01/15 17:57:36;;;;;;;7.93;3.40;;;;;;;;;;5087872;28;20215;-33
2024/01/15 18:00:08;;;;;;;4.77;2.97;;;;;;;;;;5079246;28;20320;-36
2024/01/15 18:02:44;;;;;;;5.67;4.03;;;;;;;;;;5073795;28;20217;-34
2024/01/15 18:05:20;;;;;;;6.73;3.40;;;;;;;;;;5063675;28;20205;-35
2024/01/15 18:07:49;;;;;;;4.43;3.37;;;;;;;;;;5065762;28;20208;-35
2024/01/15 18:10:24;;;;;;;4.33;3.50;;;;;;;;;;5087517;28;20241;-37
2024/01/15 18:13:00;;;;;;;5.57;3.43;;;;;;;;;;5069506;28;20657;-33
2024/01/15 18:15:45;;;;;;;4.00;3.43;;;;;;;;;;5072148;28;20215;-35
2024/01/15 18:18:16;;;;;;;5.77;3.63;;;;;;;;;;5070526;28;20292;-34
2024/01/15 18:21:08;;;;;;;7.40;4.57;;;;;;;;;;5070143;28;20232;-34
2024/01/15 18:23:42;;;;;;;4.53;3.53;;;;;;;;;;5082359;28;20235;-32
2024/01/15 18:26:11;;;;;;;6.10;3.60;;;;;;;;;;5076816;28;20217;-33
2024/01/15 18:28:42;;;;;;;4.97;3.37;;;;;;;;;;5083372;28;20564;-32
2024/01/15 18:31:15;;;;;;;4.57;3.33;;;;;;;;;;5073708;28;20225;-35
2024/01/15 18:33:52;;;;;;;9.00;4.20;;;;;;;;;;5080861;28;20574;-37
2024/01/15 18:36:24;;;;;;;7.27;4.00;;;;;;;;;;5072603;28;20196;-33
2024/01/15 18:38:57;;;;;;;5.87;3.60;;;;;;;;;;5078877;28;20670;-30
2024/01/15 18:41:30;;;;;;;5.83;3.57;;;;;;;;;;5071437;28;20225;-32
2024/01/15 18:44:21;;;;;;;3.70;3.20;;;;;;;;;;5075054;28;20270;-34
2024/01/15 18:46:50;;;;;;;4.23;3.23;;;;;;;;;;5075861;28;20212;-32
2024/01/15 18:49:20;;;;;;;6.73;3.20;;;;;;;;;;5076858;28;20217;-34
2024/01/15 18:51:52;;;;;;;3.67;3.07;;;;;;;;;;5078795;28;20319;-33
2024/01/15 18:54:23;;;;;;;4.13;3.07;;;;;;;;;;5084918;28;20197;-34
2024/01/15 18:56:57;;;;;;;5.03;3.43;;;;;;;;;;5066933;28;20209;-36
2024/01/15 18:59:30;;;;;;;5.77;3.00;;;;;;;;;;5081164;28;20228;-37
2024/01/15 19:01:59;;;;;;;6.30;3.40;;;;;;;;;;5079295;28;20229;-34
2024/01/15 19:04:28;;;;;;;4.50;2.90;;;;;;;;;;5077784;28;20216;-31
2024/01/15 19:06:55;;;;;;;5.37;3.33;;;;;;;;;;5065579;28;20197;-35
2024/01/15 19:09:30;;;;;;;7.40;3.63;;;;;;;;;;5084673;28;20259;-35
2024/01/15 19:12:02;;;;;;;3.13;2.80;;;;;;;;;;5076040;28;20196;-33
2024/01/15 19:14:31;;;;;;;5.13;2.97;;;;;;;;;;5067796;28;20247;-36
2024/01/15 19:17:01;;;;;;;3.43;2.40;;;;;;;;;;5070710;28;20296;-36
2024/01/15 19:19:34;;;;;;;4.47;2.50;;;;;;;;;;5068461;28;20217;-34
2024/01/15 19:22:06;;;;;;;3.50;2.90;;;;;;;;;;5067523;28;20201;-35
2024/01/15 19:24:42;;;;;;;6.03;3.57;;;;;;;;;;5072602;28;20212;-36
2024/01/15 19:32:42;;;;;;;3.07;2.13;;;;;;;;;;5043709;28;20620;-31
2024/01/15 19:35:14;;;;;;;4.83;2.90;;;;;;;;;;5045846;28;20236;-35
2024/01/15 19:37:43;;;;;;;3.83;2.43;;;;;;;;;;5045081;28;20218;-36
2024/01/15 19:42:43;;;;;;;3.87;2.90;;;;;;;;;;5017196;28;20219;-31
2024/01/15 19:45:14;;;;;;;6.43;2.77;;;;;;;;;;5028503;28;20207;-36
2024/01/15 19:47:48;;;;;;;4.93;2.67;;;;;;;;;;5029741;28;20222;-31
2024/01/15 19:50:16;;;;;;;4.03;2.83;;;;;;;;;;5013331;28;20231;-34
2024/01/15 19:52:58;;;;;;;3.77;2.50;;;;;;;;;;5018769;28;20209;-36
2024/01/15 19:55:27;;;;;;;6.30;2.60;;;;;;;;;;5023091;28;20207;-35
2024/01/15 19:57:59;;;;;;;2.83;2.40;;;;;;;;;;5014429;28;20222;-30
2024/01/15 20:00:32;;;;;;;5.20;3.23;;;;;;;;;;5013624;28;20219;-37
2024/01/15 20:03:01;;;;;;;4.93;3.03;;;;;;;;;;5016107;28;20298;-35
2024/01/15 20:05:32;;;;;;;3.47;3.00;;;;;;;;;;5014803;28;20222;-34
2024/01/15 20:08:03;;;;;;;4.13;2.97;;;;;;;;;;5027245;28;20205;-37
2024/01/15 20:10:37;;;;;;;5.53;2.93;;;;;;;;;;5028574;28;20261;-33
2024/01/15 20:13:08;;;;;;;4.63;3.07;;;;;;;;;;5016713;28;20267;-33
2024/01/15 20:15:38;;;;;;;4.10;3.10;;;;;;;;;;5016678;28;20238;-34
2024/01/15 20:18:08;;;;;;;4.63;3.03;;;;;;;;;;5018151;28;20203;-35
2024/01/15 20:20:37;;;;;;;4.97;2.90;;;;;;;;;;5019434;28;20297;-37
2024/01/15 20:23:13;;;;;;;3.97;2.57;;;;;;;;;;5012766;28;20245;-30
2024/01/15 20:25:43;;;;;;;5.17;2.87;;;;;;;;;;5028828;28;20210;-35
2024/01/15 20:28:15;;;;;;;3.63;2.97;;;;;;;;;;5012997;28;20207;-31
2024/01/15 20:30:45;;;;;;;4.97;2.97;;;;;;;;;;5017516;28;20239;-37
2024/01/15 20:33:18;;;;;;;3.77;2.57;;;;;;;;;;5015418;28;20206;-31
2024/01/15 20:35:46;;;;;;;4.73;3.17;;;;;;;;;;5021687;28;20229;-32
2024/01/15 20:38:21;;;;;;;6.07;2.47;;;;;;;;;;5024386;28;20305;-33
2024/01/15 20:40:52;;;;;;;3.13;2.80;;;;;;;;;;5015869;28;20238;-33
2024/01/15 20:43:24;;;;;;;4.10;3.03;;;;;;;;;;5019716;28;20291;-34
2024/01/15 20:45:55;;;;;;;4.13;3.03;;;;;;;;;;5016082;28;20231;-37
2024/01/15 20:48:27;;;;;;;11.53;5.17;;;;;;;;;;5019765;28;20565;-35
2024/01/15 20:51:00;;;;;;;6.07;3.90;;;;;;;;;;5014527;28;20218;-35
2024/01/15 20:53:29;;;;;;;9.30;4.37;;;;;;;;;;5021499;28;20529;-33
2024/01/15 20:56:01;;;;;;;4.63;2.97;;;;;;;;;;5022072;28;20203;-38
2024/01/15 20:58:31;;;;;;;5.10;3.57;;;;;;;;;;5016353;28;20199;-33
2024/01/15 21:01:08;;;;;;;5.47;3.40;;;;;;;;;;5023826;28;20571;-31
2024/01/15 21:03:40;;;;;;;3.43;2.80;;;;;;;;;;5021227;28;20202;-37
2024/01/15 21:06:09;;;;;;;9.57;3.10;;;;;;;;;;5012657;28;20200;-34
2024/01/15 21:08:39;;;;;;;3.00;2.70;;;;;;;;;;5011984;28;20218;-35
2024/01/15 21:11:07;;;;;;;8.17;4.07;;;;;;;;;;5023618;28;20230;-31
2024/01/15 21:13:38;;;;;;;12.57;7.13;;;;;;;;;;5023856;28;20219;-38
2024/01/15 21:16:06;;;;;;;13.60;7.07;;;;;;;;;;5022755;28;20200;-34
2024/01/15 21:18:40;;;;;;;7.20;4.77;;;;;;;;;;5017669;28;20210;-32
2024/01/15 21:21:08;;;;;;;32.17;13.43;;;;;;;;;;5015998;28;20227;-35
2024/01/15 21:23:36;;;;;;;4.57;2.83;;;;;;;;;;5016046;28;20269;-35
2024/01/15 21:26:05;;;;;;;15.13;7.07;;;;;;;;;;5015331;28;20591;-32
2024/01/15 21:28:32;;;;;;;10.53;4.20;;;;;;;;;;5016489;28;20210;-33
2024/01/15 21:31:02;;;;;;;8.63;4.97;;;;;;;;;;5019104;28;20226;-34
2024/01/15 21:33:36;;;;;;;7.27;3.77;;;;;;;;;;5025841;28;20210;-31
2024/01/15 21:36:07;;;;;;;4.17;2.47;;;;;;;;;;5022700;28;20535;-32
2024/01/15 21:38:38;;;;;;;39.17;18.00;;;;;;;;;;5023369;28;20243;-35
2024/01/15 21:41:09;;;;;;;38.67;16.03;;;;;;;;;;5023977;28;20241;-34
2024/01/15 21:43:37;;;;;;;48.07;20.43;;;;;;;;;;5027544;28;20230;-33
2024/01/15 21:46:07;;;;;;;43.53;18.97;;;;;;;;;;5023547;28;20427;-32
2024/01/15 21:48:35;;;;;;;10.13;4.40;;;;;;;;;;5020932;28;20671;-35
2024/01/15 21:51:07;;;;;;;37.60;17.67;;;;;;;;;;5020613;28;20226;-30
2024/01/15 21:53:35;;;;;;;13.60;6.53;;;;;;;;;;5021252;28;20213;-33
2024/01/15 21:56:03;;;;;;;30.90;13.80;;;;;;;;;;5030052;28;20703;-35
2024/01/15 21:58:31;;;;;;;12.67;5.57;;;;;;;;;;5022593;28;20203;-37
2024/01/15 22:00:59;;;;;;;21.30;9.80;;;;;;;;;;5023099;28;20231;-37
2024/01/15 22:03:29;;;;;;;14.27;6.90;;;;;;;;;;5022706;28;20233;-36
2024/01/15 22:05:58;;;;;;;25.37;10.97;;;;;;;;;;5025200;28;20297;-30
2024/01/15 22:08:39;;;;;;;28.67;12.47;;;;;;;;;;5034423;28;20733;-40
2024/01/15 22:11:08;;;;;;;20.70;8.70;;;;;;;;;;5014813;28;20253;-31
2024/01/15 22:13:36;;;;;;;16.37;8.13;;;;;;;;;;5024204;28;20219;-34
2024/01/15 22:16:07;;;;;;;27.30;11.87;;;;;;;;;;5022872;28;20203;-33
2024/01/15 22:18:37;;;;;;;9.10;4.93;;;;;;;;;;5020185;28;20284;-30
2024/01/15 22:21:11;;;;;;;13.87;6.13;;;;;;;;;;5014627;28;20285;-39
2024/01/15 22:23:40;;;;;;;14.17;6.93;;;;;;;;;;5022968;28;20219;-35
2024/01/15 22:26:09;;;;;;;13.63;6.17;;;;;;;;;;5018836;28;20633;-31
2024/01/15 22:28:37;;;;;;;23.87;11.43;;;;;;;;;;5016741;28;20294;-32
2024/01/15 22:31:09;;;;;;;7.17;4.27;;;;;;;;;;5024631;28;20222;-32
2024/01/15 22:33:39;;;;;;;40.67;17.23;;;;;;;;;;5024620;28;20207;-31
2024/01/15 22:36:08;;;;;;;20.43;9.70;;;;;;;;;;5026690;28;20226;-33
2024/01/15 22:38:37;;;;;;;17.27;7.57;;;;;;;;;;5019201;28;20211;-33
2024/01/15 22:41:06;;;;;;;4.60;2.63;;;;;;;;;;5024639;28;20313;-36
2024/01/15 22:43:33;;;;;;;5.03;3.10;;;;;;;;;;5027320;28;20202;-35
2024/01/15 22:46:04;;;;;;;42.70;17.03;;;;;;;;;;5033110;28;20300;-33
2024/01/15 22:48:41;;;;;;;7.20;4.00;;;;;;;;;;5019098;28;20261;-32
2024/01/15 22:51:09;;;;;;;4.93;3.77;;;;;;;;;;5032285;28;20252;-34
2024/01/15 22:53:36;;;;;;;8.03;3.07;;;;;;;;;;5016229;28;20218;-32
2024/01/15 22:56:05;;;;;;;50.93;19.77;;;;;;;;;;5024115;28;20218;-30
2024/01/15 22:58:35;;;;;;;28.23;12.13;;;;;;;;;;5024893;28;20269;-36
2024/01/15 23:01:03;;;;;;;75.27;24.27;;;;;;;;;;5024696;28;20288;-34
2024/01/15 23:03:31;;;;;;;91.93;29.40;;;;;;;;;;5018126;28;20203;-33
2024/01/15 23:06:01;;;;;;;19.63;7.67;;;;;;;;;;5015262;28;20234;-35
2024/01/15 23:08:33;;;;;;;5.10;2.47;;;;;;;;;;5013958;28;20227;-34
2024/01/15 23:11:01;;;;;;;5.33;3.30;;;;;;;;;;5024502;28;20318;-33
2024/01/15 23:13:30;;;;;;;48.10;17.37;;;;;;;;;;5029630;28;20239;-34
2024/01/15 23:16:01;;;;;;;6.00;3.27;;;;;;;;;;5016856;28;20235;-39
2024/01/15 23:18:38;;;;;;;6.23;3.43;;;;;;;;;;5018690;28;20261;-33
2024/01/15 23:21:13;;;;;;;4.87;3.13;;;;;;;;;;5024616;28;20268;-35
2024/01/15 23:23:49;;;;;;;15.60;8.70;;;;;;;;;;5025889;28;20217;-32
2024/01/15 23:26:24;;;;;;;17.70;10.87;;;;;;;;;;5013087;28;20203;-30
2024/01/15 23:28:59;;;;;;;11.43;7.80;;;;;;;;;;5027589;28;20206;-36
2024/01/15 23:31:29;;;;;;;21.67;14.10;;;;;;;;;;5028281;28;20241;-32
2024/01/15 23:36:40;;;;;;;9.10;4.57;;;;;;;;;;5050355;28;20221;-33
2024/01/15 23:39:14;;;;;;;6.60;3.33;;;;;;;;;;5061305;28;20208;-33
2024/01/15 23:41:47;;;;;;;4.83;2.90;;;;;;;;;;5052560;28;20204;-30
2024/01/15 23:44:16;;;;;;;4.63;3.17;;;;;;;;;;5037255;28;20202;-36
2024/01/15 23:46:48;;;;;;;6.93;3.97;;;;;;;;;;5037584;28;20294;-32
2024/01/15 23:49:21;;;;;;;5.07;2.77;;;;;;;;;;5035727;28;20635;-30
2024/01/15 23:51:58;;;;;;;7.57;4.17;;;;;;;;;;5049383;28;20217;-29
2024/01/15 23:54:29;;;;;;;6.63;4.73;;;;;;;;;;5053503;28;20684;-33
2024/01/15 23:57:00;;;;;;;4.23;3.03;;;;;;;;;;5035848;28;20658;-33
2024/01/15 23:59:35;;;;;;;5.57;4.13;;;;;;;;;;5043859;28;20565;-34
